Time;durP1;ratioP1;P1;durP2;ratioP2;P2;SDS_P1;SDS_P2;PMS_P1;PMS_P2;Temp;Humidity;BMP_temperature;BMP_pressure;BME280_temperature;BME280_humidity;BME280_pressure;Samples;Min_cycle;Max_cycle;Signal;HPM_P1;HPM_P2
2023/06/08 12:32:32;;;;;;;16.63;10.35;;;20.00;99.90;;;;;;12390384;28;20396;-38
2023/06/08 12:38:34;;;;;;;19.40;10.30;;;20.10;99.90;;;;;;12384122;28;20522;-39
2023/06/08 12:44:36;;;;;;;18.58;10.15;;;20.20;99.90;;;;;;12381214;28;20140;-39
2023/06/08 12:50:38;;;;;;;16.10;8.63;;;20.60;99.90;;;;;;12390168;28;20093;-39
2023/06/08 12:56:40;;;;;;;16.50;8.45;;;20.90;99.90;;;;;;12381185;28;20487;-39
2023/06/08 13:02:42;;;;;;;11.73;7.93;;;21.00;99.90;;;;;;12433129;28;20050;-39
2023/06/08 13:08:44;;;;;;;12.82;9.10;;;21.70;99.90;;;;;;12413484;28;20046;-38
2023/06/08 13:14:46;;;;;;;17.67;9.75;;;21.80;99.90;;;;;;12405847;28;20061;-38
2023/06/08 13:20:48;;;;;;;10.63;7.47;;;21.70;99.90;;;;;;12410433;28;20054;-38
2023/06/08 13:26:53;;;;;;;12.55;7.68;;;21.70;99.90;;;;;;12407776;28;20046;-38
2023/06/08 13:32:59;;;;;;;14.02;8.73;;;22.00;99.90;;;;;;12401933;28;20050;-38
2023/06/08 13:39:01;;;;;;;15.27;8.57;;;22.20;99.90;;;;;;12371445;28;20054;-39
2023/06/08 13:45:04;;;;;;;15.32;7.82;;;22.40;99.90;;;;;;12395865;28;20050;-38
2023/06/08 13:51:06;;;;;;;13.95;7.97;;;22.30;99.90;;;;;;12406309;28;20042;-39
2023/06/08 13:57:08;;;;;;;17.48;8.70;;;22.30;99.90;;;;;;12413688;28;20877;-39
2023/06/08 14:03:10;;;;;;;12.07;7.53;;;22.60;99.90;;;;;;12401626;28;20518;-40
2023/06/08 14:09:12;;;;;;;13.10;7.73;;;22.50;99.90;;;;;;12415096;28;20161;-40
2023/06/08 14:15:17;;;;;;;11.15;6.55;;;22.50;99.90;;;;;;12413114;28;20288;-40
2023/06/08 14:21:20;;;;;;;10.90;6.22;;;22.70;99.90;;;;;;12414927;28;20038;-39
2023/06/08 14:27:21;;;;;;;7.47;5.72;;;22.70;99.90;;;;;;12393992;28;20145;-39
2023/06/08 14:33:23;;;;;;;8.05;5.43;;;22.60;99.90;;;;;;12409374;28;20083;-40
2023/06/08 14:39:26;;;;;;;7.25;4.72;;;22.70;99.90;;;;;;12405042;28;20088;-39
2023/06/08 14:45:28;;;;;;;8.95;4.70;;;22.80;99.90;;;;;;12406324;28;20057;-39
2023/06/08 14:51:30;;;;;;;5.60;4.32;;;22.80;99.90;;;;;;12413453;28;20153;-40
2023/06/08 14:57:39;;;;;;;8.35;4.40;;;22.90;99.90;;;;;;12417537;28;20767;-40
2023/06/08 15:03:42;;;;;;;8.18;4.10;;;22.90;99.90;;;;;;12410731;28;20543;-39
2023/06/08 15:09:44;;;;;;;5.83;3.40;;;22.80;99.90;;;;;;12397801;28;20046;-39
2023/06/08 15:15:46;;;;;;;7.25;3.10;;;22.90;99.90;;;;;;12399128;28;20687;-39
2023/06/08 15:21:48;;;;;;;4.32;2.78;;;22.90;99.90;;;;;;12421193;28;20053;-40
2023/06/08 15:27:50;;;;;;;5.80;3.15;;;23.00;99.90;;;;;;12407818;28;20092;-39
2023/06/08 15:33:52;;;;;;;6.28;2.95;;;23.00;99.90;;;;;;12417595;28;20073;-38
2023/06/08 15:39:57;;;;;;;6.32;3.20;;;23.00;99.90;;;;;;12413021;28;20077;-39
2023/06/08 15:45:59;;;;;;;7.53;3.15;;;23.20;99.90;;;;;;12405837;28;20050;-39
2023/06/08 15:52:01;;;;;;;5.77;3.50;;;23.20;99.90;;;;;;12403132;28;20053;-39
2023/06/08 15:58:04;;;;;;;5.13;3.53;;;23.20;99.90;;;;;;12419182;28;20169;-39
2023/06/08 16:04:05;;;;;;;6.18;3.72;;;22.90;99.90;;;;;;12407390;28;20077;-40
2023/06/08 16:10:08;;;;;;;10.77;4.25;;;22.70;99.90;;;;;;12387928;28;20501;-39
2023/06/08 16:16:10;;;;;;;8.10;4.45;;;22.50;99.90;;;;;;12420228;28;20054;-38
2023/06/08 16:22:12;;;;;;;5.97;4.63;;;22.30;99.90;;;;;;12415509;28;20053;-40
2023/06/08 16:28:14;;;;;;;6.75;4.72;;;22.50;99.90;;;;;;12397304;28;20563;-39
2023/06/08 16:34:17;;;;;;;10.85;4.72;;;22.80;99.90;;;;;;12403874;28;20080;-41
2023/06/08 16:40:19;;;;;;;6.38;4.13;;;23.10;99.90;;;;;;12402083;28;20054;-40
2023/06/08 16:46:21;;;;;;;7.05;4.47;;;23.40;99.90;;;;;;12408684;28;20057;-39
2023/06/08 16:52:23;;;;;;;6.45;4.35;;;23.20;99.90;;;;;;12397308;28;20483;-40
2023/06/08 16:58:25;;;;;;;5.53;3.90;;;23.00;99.90;;;;;;12390919;28;20050;-39
2023/06/08 17:04:27;;;;;;;6.07;4.20;;;22.90;99.90;;;;;;12405956;28;20041;-39
2023/06/08 17:10:29;;;;;;;7.35;4.50;;;23.00;99.90;;;;;;12391814;28;20065;-40
2023/06/08 17:16:31;;;;;;;9.80;4.13;;;22.90;99.90;;;;;;12426197;28;20380;-40
2023/06/08 17:22:32;;;;;;;6.05;4.30;;;23.20;99.90;;;;;;12412291;28;20072;-40
2023/06/08 17:28:34;;;;;;;7.63;4.60;;;23.30;99.90;;;;;;12412582;28;20081;-40
2023/06/08 17:34:37;;;;;;;6.07;4.50;;;23.20;99.90;;;;;;12392938;28;20411;-40
2023/06/08 17:40:39;;;;;;;6.95;4.90;;;23.10;99.90;;;;;;12404053;28;20049;-39
2023/06/08 17:46:40;;;;;;;10.63;5.50;;;22.70;99.90;;;;;;12390179;28;20045;-39
2023/06/08 17:53:01;;;;;;;8.30;5.53;;;22.70;99.90;;;;;;12403697;28;20057;-40
2023/06/08 17:59:03;;;;;;;8.02;5.38;;;22.70;99.90;;;;;;12411698;28;20050;-40
2023/06/08 18:05:06;;;;;;;13.18;5.75;;;22.80;99.90;;;;;;12396192;28;20049;-39
2023/06/08 18:11:08;;;;;;;10.05;5.32;;;22.50;99.90;;;;;;12429926;28;20053;-38
2023/06/08 18:17:11;;;;;;;9.70;5.77;;;22.20;99.90;;;;;;12423430;28;20445;-39
2023/06/08 18:23:13;;;;;;;9.43;6.07;;;21.80;99.90;;;;;;12424220;28;20045;-39
2023/06/08 18:29:15;;;;;;;11.18;6.57;;;21.80;99.90;;;;;;12430108;28;20068;-39
2023/06/08 18:35:18;;;;;;;14.30;6.65;;;21.70;99.90;;;;;;12422187;28;20100;-39
2023/06/08 18:41:21;;;;;;;11.18;6.00;;;21.80;99.90;;;;;;12422327;28;20088;-40
2023/06/08 18:47:23;;;;;;;;;;;21.70;99.90;;;;;;12424538;28;20089;-40
2023/06/08 18:53:26;;;;;;;10.82;5.70;;;21.60;99.90;;;;;;12425169;28;19929;-39
2023/06/08 18:59:28;;;;;;;8.20;5.67;;;21.40;99.90;;;;;;12426505;28;20121;-40
2023/06/08 19:05:31;;;;;;;9.45;5.47;;;21.40;99.90;;;;;;12422777;28;20037;-39
2023/06/08 19:11:33;;;;;;;8.77;5.83;;;21.10;99.90;;;;;;12430130;28;20064;-40
2023/06/08 19:17:35;;;;;;;13.13;5.60;;;21.10;99.90;;;;;;12429861;28;20046;-39
2023/06/08 19:23:37;;;;;;;8.57;5.35;;;20.90;99.90;;;;;;12421619;28;20038;-39
2023/06/08 19:29:39;;;;;;;10.07;5.45;;;20.90;99.90;;;;;;12407864;28;20053;-40
2023/06/08 19:35:41;;;;;;;8.02;4.50;;;20.70;99.90;;;;;;12419154;28;20064;-39
2023/06/08 19:41:50;;;;;;;9.93;5.15;;;20.60;99.90;;;;;;12423160;28;20057;-40
2023/06/08 19:47:52;;;;;;;8.07;5.05;;;20.40;99.90;;;;;;12419431;28;20660;-39
2023/06/08 19:53:54;;;;;;;9.23;5.13;;;20.30;99.90;;;;;;12437215;28;20465;-39
2023/06/08 19:59:56;;;;;;;8.95;5.10;;;20.10;99.90;;;;;;12422994;28;20160;-39
2023/06/08 20:05:58;;;;;;;7.57;4.50;;;20.30;99.90;;;;;;12419019;28;20064;-40
2023/06/08 20:12:00;;;;;;;10.18;5.32;;;20.30;99.90;;;;;;12423889;28;20407;-39
2023/06/08 20:18:05;;;;;;;9.23;5.40;;;20.30;99.90;;;;;;12423977;28;20057;-39
2023/06/08 20:24:11;;;;;;;12.43;5.68;;;20.20;99.90;;;;;;12422075;28;20046;-39
2023/06/08 20:30:13;;;;;;;8.88;5.10;;;20.00;99.90;;;;;;12421700;28;20050;-40
2023/06/08 20:36:15;;;;;;;9.75;5.07;;;20.00;99.90;;;;;;12419530;28;20398;-39
2023/06/08 20:42:17;;;;;;;8.73;5.22;;;19.90;99.90;;;;;;12420280;28;20477;-39
2023/06/08 20:48:19;;;;;;;8.23;5.43;;;19.70;99.90;;;;;;12424428;28;20050;-38
2023/06/08 20:54:21;;;;;;;9.07;5.30;;;19.40;99.90;;;;;;12431678;28;20046;-39
2023/06/08 21:00:23;;;;;;;9.75;5.68;;;19.20;99.90;;;;;;12428222;28;20049;-38
2023/06/08 21:06:25;;;;;;;9.80;5.88;;;19.00;99.90;;;;;;12432647;28;20105;-38
2023/06/08 21:12:27;;;;;;;9.68;5.35;;;18.90;99.90;;;;;;12434347;28;20410;-38
2023/06/08 21:18:29;;;;;;;10.02;5.45;;;19.00;99.90;;;;;;12435490;28;20058;-38
2023/06/08 21:24:31;;;;;;;9.45;5.38;;;18.90;99.90;;;;;;12421511;28;20078;-40
2023/06/08 21:30:33;;;;;;;8.43;5.75;;;18.90;99.90;;;;;;12429090;28;20079;-38
2023/06/08 21:36:35;;;;;;;8.32;5.80;;;18.90;99.90;;;;;;12434997;28;20498;-39
2023/06/08 21:42:37;;;;;;;9.95;5.70;;;19.10;99.90;;;;;;12429824;28;20057;-40
2023/06/08 21:48:39;;;;;;;9.55;6.03;;;19.10;99.90;;;;;;12427369;28;20082;-39
2023/06/08 21:54:41;;;;;;;6.57;5.40;;;19.10;99.90;;;;;;12428747;28;20046;-38
2023/06/08 22:00:45;;;;;;;8.77;6.18;;;19.00;99.90;;;;;;12428261;28;20498;-39
2023/06/08 22:06:47;;;;;;;10.52;5.57;;;18.90;99.90;;;;;;12428637;28;20064;-40
2023/06/08 22:12:54;;;;;;;7.57;5.43;;;18.70;99.90;;;;;;12426250;28;20820;-38
2023/06/08 22:18:57;;;;;;;7.97;6.10;;;18.70;99.90;;;;;;12430310;28;20053;-38
2023/06/08 22:24:59;;;;;;;13.70;6.72;;;18.60;99.90;;;;;;12430717;28;20076;-38
2023/06/08 22:31:01;;;;;;;9.30;6.18;;;18.50;99.90;;;;;;12429179;28;20387;-39
2023/06/08 22:37:06;;;;;;;10.75;5.95;;;18.40;99.90;;;;;;12430398;28;20073;-38
2023/06/08 22:43:08;;;;;;;8.30;5.07;;;18.50;99.90;;;;;;12432373;28;20045;-38
2023/06/08 22:49:13;;;;;;;8.45;6.38;;;18.60;99.90;;;;;;12419273;28;20133;-38
2023/06/08 22:55:15;;;;;;;11.25;6.72;;;18.40;99.90;;;;;;12432616;28;20057;-38
2023/06/08 23:01:18;;;;;;;8.57;5.82;;;18.20;99.90;;;;;;12426458;28;20051;-38
2023/06/08 23:07:25;;;;;;;7.35;6.22;;;18.20;99.90;;;;;;12423841;28;20049;-39
2023/06/08 23:13:27;;;;;;;9.27;7.38;;;18.00;99.90;;;;;;12425377;28;20046;-38
2023/06/08 23:19:30;;;;;;;11.48;7.63;;;17.80;99.90;;;;;;12433309;28;20442;-38
2023/06/08 23:25:33;;;;;;;12.68;7.32;;;17.70;99.90;;;;;;12426607;28;20052;-40
2023/06/08 23:31:35;;;;;;;10.98;8.00;;;17.60;99.90;;;;;;12428371;28;20057;-39
2023/06/08 23:37:37;;;;;;;10.65;7.20;;;17.70;99.90;;;;;;12425417;28;20065;-39
2023/06/08 23:43:40;;;;;;;8.77;6.45;;;17.70;99.90;;;;;;12428683;28;20046;-38
2023/06/08 23:49:42;;;;;;;9.50;6.55;;;17.80;99.90;;;;;;12426789;28;20042;-38
2023/06/08 23:55:44;;;;;;;9.73;7.53;;;17.70;99.90;;;;;;12427179;28;20053;-39
